Time;durP1;ratioP1;P1;durP2;ratioP2;P2;SDS_P1;SDS_P2;PMS_P1;PMS_P2;Temp;Humidity;BMP_temperature;BMP_pressure;BME280_temperature;BME280_humidity;BME280_pressure;Samples;Min_cycle;Max_cycle;Signal;HPM_P1;HPM_P2
2021/10/31 00:01:24;;;;;;;7.20;1.40;;;;;;;;;;5088813;28;20069;-59
2021/10/31 00:03:50;;;;;;;2.85;1.10;;;;;;;;;;5091983;28;20108;-60
2021/10/31 00:06:16;;;;;;;6.70;1.20;;;;;;;;;;5089719;28;20040;-62
2021/10/31 00:08:41;;;;;;;2.42;0.80;;;;;;;;;;5073851;28;20482;-60
2021/10/31 00:11:08;;;;;;;4.68;1.33;;;;;;;;;;5093749;28;20036;-60
2021/10/31 00:13:35;;;;;;;7.05;1.10;;;;;;;;;;5089717;28;20044;-62
2021/10/31 00:16:01;;;;;;;2.42;0.90;;;;;;;;;;5092123;28;20043;-60
2021/10/31 00:18:27;;;;;;;2.17;0.93;;;;;;;;;;5091306;28;20066;-58
2021/10/31 00:20:53;;;;;;;10.07;1.27;;;;;;;;;;5091268;28;20140;-61
2021/10/31 00:23:20;;;;;;;3.40;1.10;;;;;;;;;;5069118;28;20123;-59
2021/10/31 00:25:46;;;;;;;3.97;1.05;;;;;;;;;;5092447;28;20385;-60
2021/10/31 00:28:11;;;;;;;4.65;1.40;;;;;;;;;;5088381;28;20063;-60
2021/10/31 00:30:37;;;;;;;3.83;1.40;;;;;;;;;;5089766;28;20476;-60
2021/10/31 00:33:03;;;;;;;4.85;1.35;;;;;;;;;;5074627;28;20112;-59
2021/10/31 00:35:29;;;;;;;7.88;1.40;;;;;;;;;;5090619;28;20044;-60
2021/10/31 00:37:55;;;;;;;4.25;1.25;;;;;;;;;;5087921;28;20114;-60
2021/10/31 00:40:21;;;;;;;6.15;1.35;;;;;;;;;;5091556;28;20441;-59
2021/10/31 00:42:47;;;;;;;5.30;1.23;;;;;;;;;;5091903;28;20484;-61
2021/10/31 00:45:13;;;;;;;3.80;1.40;;;;;;;;;;5091203;28;20063;-59
2021/10/31 00:47:39;;;;;;;5.25;1.30;;;;;;;;;;5090816;28;20048;-58
2021/10/31 00:50:05;;;;;;;3.97;1.17;;;;;;;;;;5087928;28;20043;-58
2021/10/31 00:52:31;;;;;;;5.13;1.80;;;;;;;;;;5073902;28;20194;-59
2021/10/31 00:54:58;;;;;;;5.68;1.58;;;;;;;;;;5089589;28;20035;-60
2021/10/31 00:57:25;;;;;;;5.15;1.52;;;;;;;;;;5088633;28;20127;-59
2021/10/31 00:59:51;;;;;;;4.10;1.30;;;;;;;;;;5092793;28;20044;-60
2021/10/31 01:02:17;;;;;;;7.65;1.40;;;;;;;;;;5095184;28;20096;-60
2021/10/31 01:04:49;;;;;;;7.35;1.80;;;;;;;;;;5092453;28;20031;-62
2021/10/31 01:07:33;;;;;;;5.45;1.90;;;;;;;;;;5090317;28;20067;-58
2021/10/31 01:10:18;;;;;;;14.32;1.77;;;;;;;;;;5090875;28;20127;-62
2021/10/31 01:12:47;;;;;;;4.25;1.73;;;;;;;;;;5090420;28;20035;-62
2021/10/31 01:15:18;;;;;;;4.00;1.42;;;;;;;;;;5092061;28;20258;-59
2021/10/31 01:17:47;;;;;;;4.45;1.60;;;;;;;;;;5091953;28;20032;-60
2021/10/31 01:20:18;;;;;;;3.63;1.50;;;;;;;;;;5095118;28;20412;-59
2021/10/31 01:23:03;;;;;;;2.80;1.10;;;;;;;;;;5093102;28;20043;-58
2021/10/31 01:25:40;;;;;;;2.90;1.10;;;;;;;;;;5090021;28;20043;-57
2021/10/31 01:28:24;;;;;;;4.60;1.60;;;;;;;;;;5087742;28;20051;-60
2021/10/31 01:31:13;;;;;;;13.00;1.95;;;;;;;;;;5087740;28;20058;-58
2021/10/31 01:33:39;;;;;;;6.00;1.58;;;;;;;;;;5087733;28;20107;-58
2021/10/31 01:36:11;;;;;;;5.35;1.70;;;;;;;;;;5089659;28;20500;-57
2021/10/31 01:38:55;;;;;;;15.55;1.92;;;;;;;;;;5089339;28;20105;-60
2021/10/31 01:41:41;;;;;;;3.78;1.58;;;;;;;;;;5090321;28;20185;-55
2021/10/31 01:44:27;;;;;;;6.15;1.55;;;;;;;;;;5045740;28;20038;-57
2021/10/31 01:47:13;;;;;;;4.63;1.80;;;;;;;;;;5090996;28;22052;-59
2021/10/31 01:49:48;;;;;;;4.03;1.70;;;;;;;;;;5096427;28;20063;-59
2021/10/31 01:52:26;;;;;;;15.15;2.10;;;;;;;;;;5095043;28;20050;-59
2021/10/31 01:54:57;;;;;;;6.43;2.00;;;;;;;;;;5079362;28;20040;-60
2021/10/31 01:57:24;;;;;;;8.80;2.40;;;;;;;;;;5094149;28;20036;-59
2021/10/31 02:00:02;;;;;;;5.63;2.22;;;;;;;;;;5097005;28;20504;-58
2021/10/31 02:02:29;;;;;;;5.35;1.80;;;;;;;;;;5077690;28;20047;-57
2021/10/31 02:04:55;;;;;;;5.93;2.13;;;;;;;;;;5070850;28;20460;-59
2021/10/31 02:07:21;;;;;;;4.88;1.98;;;;;;;;;;5073610;28;20622;-61
2021/10/31 02:09:48;;;;;;;7.05;2.10;;;;;;;;;;5079819;28;20044;-59
2021/10/31 02:12:17;;;;;;;4.18;1.45;;;;;;;;;;5095893;28;20496;-60
2021/10/31 02:14:44;;;;;;;6.30;1.83;;;;;;;;;;5074747;28;20040;-57
2021/10/31 02:17:10;;;;;;;3.95;1.83;;;;;;;;;;5073541;28;20132;-57
2021/10/31 02:19:44;;;;;;;5.18;1.80;;;;;;;;;;5073720;28;20036;-58
2021/10/31 02:22:12;;;;;;;11.80;2.35;;;;;;;;;;5076097;28;20088;-60
2021/10/31 02:24:38;;;;;;;5.60;2.70;;;;;;;;;;5073073;28;20124;-60
2021/10/31 02:27:15;;;;;;;5.60;2.00;;;;;;;;;;5086579;28;20062;-61
2021/10/31 02:29:52;;;;;;;5.07;2.00;;;;;;;;;;5072435;28;20095;-54
2021/10/31 02:32:18;;;;;;;5.57;2.42;;;;;;;;;;5072978;28;20033;-60
2021/10/31 02:34:44;;;;;;;5.18;2.15;;;;;;;;;;5080290;28;20032;-60
2021/10/31 02:37:11;;;;;;;8.38;2.30;;;;;;;;;;5054734;28;20064;-58
2021/10/31 02:39:37;;;;;;;14.55;2.83;;;;;;;;;;5074177;28;20038;-59
2021/10/31 02:42:03;;;;;;;7.13;2.40;;;;;;;;;;5060635;28;20035;-59
2021/10/31 02:44:29;;;;;;;6.93;2.58;;;;;;;;;;5073962;28;20039;-60
2021/10/31 02:46:55;;;;;;;6.20;2.17;;;;;;;;;;5072089;28;20052;-59
2021/10/31 02:49:21;;;;;;;6.72;2.33;;;;;;;;;;5071550;28;20036;-58
2021/10/31 02:51:51;;;;;;;6.70;2.42;;;;;;;;;;5072689;28;20046;-57
2021/10/31 02:54:33;;;;;;;9.68;2.10;;;;;;;;;;5092653;28;20040;-61
2021/10/31 02:57:18;;;;;;;6.30;2.42;;;;;;;;;;5085557;28;20025;-60
2021/10/31 02:59:44;;;;;;;7.35;1.80;;;;;;;;;;5079579;28;20741;-59
2021/10/31 03:02:10;;;;;;;4.80;2.35;;;;;;;;;;5091410;28;20114;-60
2021/10/31 03:04:37;;;;;;;8.13;2.65;;;;;;;;;;5093797;28;20043;-59
2021/10/31 03:07:03;;;;;;;9.65;2.50;;;;;;;;;;5094286;28;20051;-58
2021/10/31 03:09:29;;;;;;;6.72;2.30;;;;;;;;;;5095023;28;20067;-57
2021/10/31 03:11:59;;;;;;;7.15;2.83;;;;;;;;;;5094924;28;20040;-58
2021/10/31 03:14:25;;;;;;;13.05;2.30;;;;;;;;;;5082425;28;20511;-59
2021/10/31 03:16:51;;;;;;;7.57;2.42;;;;;;;;;;5072240;28;20043;-59
2021/10/31 03:19:17;;;;;;;9.55;2.45;;;;;;;;;;5071807;28;20063;-58
2021/10/31 03:21:42;;;;;;;13.30;2.70;;;;;;;;;;5081390;28;20036;-60
2021/10/31 03:24:09;;;;;;;7.70;2.47;;;;;;;;;;5072264;28;20038;-60
2021/10/31 03:26:35;;;;;;;5.55;2.47;;;;;;;;;;5067782;28;20067;-58
2021/10/31 03:29:01;;;;;;;4.65;2.10;;;;;;;;;;5069099;28;20040;-59
2021/10/31 03:31:27;;;;;;;5.45;2.33;;;;;;;;;;5071463;28;20593;-59
2021/10/31 03:33:52;;;;;;;5.68;2.30;;;;;;;;;;5069994;28;20036;-58
2021/10/31 03:36:18;;;;;;;8.80;2.33;;;;;;;;;;5069075;28;20123;-57
2021/10/31 03:38:44;;;;;;;5.75;2.40;;;;;;;;;;5073560;28;20046;-59
2021/10/31 03:41:10;;;;;;;8.05;2.45;;;;;;;;;;5067770;28;20071;-58
2021/10/31 03:43:39;;;;;;;4.75;1.98;;;;;;;;;;5069648;28;20040;-60
2021/10/31 03:46:05;;;;;;;11.85;2.50;;;;;;;;;;5066922;28;20039;-60
2021/10/31 03:48:31;;;;;;;6.25;2.53;;;;;;;;;;5066869;28;20609;-58
2021/10/31 03:50:57;;;;;;;7.30;2.58;;;;;;;;;;5070749;28;20036;-59
2021/10/31 03:53:23;;;;;;;6.45;2.45;;;;;;;;;;5070282;28;20124;-59
2021/10/31 03:55:49;;;;;;;5.55;2.20;;;;;;;;;;5069029;28;20040;-59
2021/10/31 03:58:15;;;;;;;7.32;2.42;;;;;;;;;;5052711;28;21536;-61
2021/10/31 04:00:43;;;;;;;5.38;2.10;;;;;;;;;;5066225;28;20047;-60
2021/10/31 04:03:08;;;;;;;5.03;2.20;;;;;;;;;;5070124;28;20218;-58
2021/10/31 04:05:34;;;;;;;8.02;2.50;;;;;;;;;;5069647;28;20039;-60
2021/10/31 04:08:00;;;;;;;8.30;2.30;;;;;;;;;;5082732;28;20932;-56
2021/10/31 04:10:26;;;;;;;4.30;1.83;;;;;;;;;;5067670;28;20040;-60
2021/10/31 04:12:52;;;;;;;5.82;2.60;;;;;;;;;;5070014;28;20123;-60
2021/10/31 04:15:19;;;;;;;6.45;2.55;;;;;;;;;;5048229;28;20036;-59
2021/10/31 04:17:45;;;;;;;4.43;1.63;;;;;;;;;;5070419;28;20041;-57
2021/10/31 04:20:11;;;;;;;6.75;2.28;;;;;;;;;;5071238;28;20036;-60
2021/10/31 04:22:37;;;;;;;7.57;2.03;;;;;;;;;;5073351;28;20044;-59
2021/10/31 04:25:04;;;;;;;9.18;2.45;;;;;;;;;;5068922;28;20032;-59
2021/10/31 04:27:30;;;;;;;6.03;2.20;;;;;;;;;;5070531;28;20067;-57
2021/10/31 04:29:56;;;;;;;7.40;2.40;;;;;;;;;;5071243;28;20036;-59
2021/10/31 04:32:22;;;;;;;4.20;1.90;;;;;;;;;;5069232;28;20567;-58
2021/10/31 04:34:48;;;;;;;6.35;2.60;;;;;;;;;;5068668;28;20040;-58
2021/10/31 04:37:14;;;;;;;9.68;2.22;;;;;;;;;;5059345;28;20059;-61
2021/10/31 04:39:41;;;;;;;7.40;2.38;;;;;;;;;;5071318;28;20895;-58
2021/10/31 04:42:09;;;;;;;7.78;2.15;;;;;;;;;;5078899;28;20408;-59
2021/10/31 04:44:35;;;;;;;4.25;1.80;;;;;;;;;;5068693;28;21078;-59
2021/10/31 04:47:01;;;;;;;4.95;2.42;;;;;;;;;;5067734;28;20116;-60
2021/10/31 04:49:27;;;;;;;11.90;2.20;;;;;;;;;;5066579;28;20036;-60
2021/10/31 04:51:53;;;;;;;7.80;2.28;;;;;;;;;;5068091;28;20040;-62
2021/10/31 04:54:19;;;;;;;5.07;1.88;;;;;;;;;;5068273;28;20109;-59
2021/10/31 04:56:45;;;;;;;5.50;2.28;;;;;;;;;;5067033;28;20496;-60
2021/10/31 04:59:11;;;;;;;6.10;2.25;;;;;;;;;;5066589;28;20059;-61
2021/10/31 05:01:37;;;;;;;5.10;2.10;;;;;;;;;;5064539;28;20132;-61
2021/10/31 05:04:02;;;;;;;3.55;1.80;;;;;;;;;;5064056;28;20052;-59
2021/10/31 05:06:29;;;;;;;3.72;1.90;;;;;;;;;;5065552;28;20123;-60
2021/10/31 05:08:55;;;;;;;6.82;2.40;;;;;;;;;;5047629;28;20603;-60
2021/10/31 05:11:21;;;;;;;8.05;2.10;;;;;;;;;;5067056;28;20044;-60
2021/10/31 05:13:48;;;;;;;5.70;1.83;;;;;;;;;;5067642;28;20504;-61
2021/10/31 05:16:14;;;;;;;9.98;2.25;;;;;;;;;;5067541;28;20040;-60
2021/10/31 05:18:40;;;;;;;4.20;2.05;;;;;;;;;;5069070;28;20075;-60
2021/10/31 05:21:06;;;;;;;4.43;2.33;;;;;;;;;;5067118;28;20539;-61
2021/10/31 05:23:32;;;;;;;4.43;1.77;;;;;;;;;;5066607;28;20071;-59
2021/10/31 05:25:58;;;;;;;5.32;2.35;;;;;;;;;;5067464;28;20143;-58
2021/10/31 05:28:25;;;;;;;6.93;1.92;;;;;;;;;;5067961;28;20048;-61
2021/10/31 05:30:51;;;;;;;7.40;2.53;;;;;;;;;;5068439;28;20539;-60
2021/10/31 05:33:18;;;;;;;5.18;2.30;;;;;;;;;;5069973;28;20096;-60
2021/10/31 05:35:45;;;;;;;10.77;2.78;;;;;;;;;;5089298;28;20039;-60
2021/10/31 05:38:11;;;;;;;5.53;2.28;;;;;;;;;;5089575;28;20460;-58
2021/10/31 05:40:37;;;;;;;5.68;2.25;;;;;;;;;;5091148;28;20086;-60
2021/10/31 05:43:03;;;;;;;4.85;2.47;;;;;;;;;;5093192;28;20075;-60
2021/10/31 05:45:29;;;;;;;9.15;2.53;;;;;;;;;;5094234;28;20515;-60
2021/10/31 05:47:55;;;;;;;6.80;2.30;;;;;;;;;;5092755;28;20041;-61
2021/10/31 05:50:21;;;;;;;4.63;1.95;;;;;;;;;;5096626;28;20040;-60
2021/10/31 05:52:47;;;;;;;6.13;2.50;;;;;;;;;;5101040;28;20101;-60
2021/10/31 05:55:14;;;;;;;4.95;2.08;;;;;;;;;;5095111;28;20064;-61
2021/10/31 05:57:41;;;;;;;4.80;2.50;;;;;;;;;;5094928;28;20578;-59
2021/10/31 06:00:07;;;;;;;5.63;2.10;;;;;;;;;;5094329;28;20071;-60
2021/10/31 06:02:34;;;;;;;6.43;2.88;;;;;;;;;;5091104;28;20079;-60
2021/10/31 06:05:00;;;;;;;6.57;2.17;;;;;;;;;;5075043;28;20403;-59
2021/10/31 06:07:26;;;;;;;11.57;2.55;;;;;;;;;;5091992;28;20047;-57
2021/10/31 06:09:52;;;;;;;6.03;2.75;;;;;;;;;;5092187;28;20397;-60
2021/10/31 06:12:18;;;;;;;7.65;2.40;;;;;;;;;;5090101;28;20039;-60
2021/10/31 06:14:44;;;;;;;8.63;2.95;;;;;;;;;;5085864;28;20039;-60
2021/10/31 06:17:10;;;;;;;6.70;2.88;;;;;;;;;;5090160;28;20381;-59
2021/10/31 06:19:36;;;;;;;7.97;2.63;;;;;;;;;;5090875;28;20038;-59
2021/10/31 06:22:03;;;;;;;6.43;2.10;;;;;;;;;;5092459;28;20044;-60
2021/10/31 06:24:29;;;;;;;6.70;2.33;;;;;;;;;;5084936;28;20150;-58
2021/10/31 06:26:54;;;;;;;4.57;2.13;;;;;;;;;;5092291;28;20128;-58
2021/10/31 06:29:20;;;;;;;6.75;2.00;;;;;;;;;;5090394;28;20484;-59
2021/10/31 06:31:46;;;;;;;6.80;1.98;;;;;;;;;;5090640;28;20043;-58
2021/10/31 06:34:12;;;;;;;4.90;1.88;;;;;;;;;;5090511;28;21149;-59
2021/10/31 06:36:38;;;;;;;6.28;2.25;;;;;;;;;;5094351;28;20044;-59
2021/10/31 06:39:04;;;;;;;3.30;1.70;;;;;;;;;;5077184;28;20059;-60
2021/10/31 06:41:30;;;;;;;5.78;2.15;;;;;;;;;;5094834;28;20031;-61
2021/10/31 06:43:56;;;;;;;6.97;1.95;;;;;;;;;;5089846;28;20044;-58
2021/10/31 06:46:22;;;;;;;5.20;2.45;;;;;;;;;;5092073;28;20055;-59
2021/10/31 06:48:48;;;;;;;4.25;2.10;;;;;;;;;;5095228;28;20877;-55
2021/10/31 06:51:15;;;;;;;6.72;2.42;;;;;;;;;;5094224;28;21908;-55
2021/10/31 06:53:41;;;;;;;8.65;2.10;;;;;;;;;;5092298;28;20118;-58
2021/10/31 06:56:07;;;;;;;5.15;2.30;;;;;;;;;;5094270;28;20062;-59
2021/10/31 06:58:33;;;;;;;4.03;2.08;;;;;;;;;;5093440;28;20043;-59
2021/10/31 07:00:58;;;;;;;9.80;2.22;;;;;;;;;;5095202;28;20114;-60
2021/10/31 07:03:24;;;;;;;7.35;2.40;;;;;;;;;;5092048;28;20050;-59
2021/10/31 07:05:52;;;;;;;6.82;2.33;;;;;;;;;;5091276;28;20159;-60
2021/10/31 07:08:18;;;;;;;5.15;2.17;;;;;;;;;;5094391;28;20044;-61
2021/10/31 07:10:44;;;;;;;4.28;1.90;;;;;;;;;;5093290;28;20036;-60
2021/10/31 07:13:09;;;;;;;5.63;1.92;;;;;;;;;;5095192;28;20044;-60
2021/10/31 07:15:35;;;;;;;4.05;1.95;;;;;;;;;;5094841;28;20032;-60
2021/10/31 07:18:03;;;;;;;6.47;2.30;;;;;;;;;;5094444;28;20047;-61
2021/10/31 07:20:29;;;;;;;8.05;2.13;;;;;;;;;;5094161;28;20039;-57
2021/10/31 07:22:55;;;;;;;14.15;2.58;;;;;;;;;;5077069;28;20039;-60
2021/10/31 07:25:22;;;;;;;5.55;2.58;;;;;;;;;;5094366;28;20047;-60
2021/10/31 07:27:48;;;;;;;5.82;2.40;;;;;;;;;;5095119;28;20136;-61
2021/10/31 07:30:14;;;;;;;6.65;2.78;;;;;;;;;;5095802;28;20040;-58
2021/10/31 07:32:41;;;;;;;7.20;3.00;;;;;;;;;;5094937;28;20169;-61
2021/10/31 07:35:07;;;;;;;4.20;2.22;;;;;;;;;;5078784;28;20063;-57
2021/10/31 07:37:33;;;;;;;7.38;2.55;;;;;;;;;;5098528;28;20108;-60
2021/10/31 07:40:00;;;;;;;5.00;2.42;;;;;;;;;;5095711;28;20051;-57
2021/10/31 07:42:30;;;;;;;7.43;2.83;;;;;;;;;;5098548;28;20047;-60
2021/10/31 07:44:56;;;;;;;17.08;2.90;;;;;;;;;;5095364;28;20039;-61
2021/10/31 07:47:22;;;;;;;6.47;3.55;;;;;;;;;;5094863;28;20052;-59
2021/10/31 07:49:50;;;;;;;7.32;2.95;;;;;;;;;;5095670;28;20036;-59
2021/10/31 07:52:17;;;;;;;10.05;2.70;;;;;;;;;;5093456;28;20119;-60
2021/10/31 07:54:43;;;;;;;9.38;3.08;;;;;;;;;;5074572;28;20480;-60
2021/10/31 07:57:08;;;;;;;5.22;2.47;;;;;;;;;;5094737;28;20563;-59
2021/10/31 07:59:34;;;;;;;6.40;2.63;;;;;;;;;;5090640;28;20039;-59
2021/10/31 08:02:02;;;;;;;4.85;2.45;;;;;;;;;;5091939;28;20052;-61
2021/10/31 08:04:28;;;;;;;5.93;2.17;;;;;;;;;;5092714;28;20216;-59
2021/10/31 08:06:54;;;;;;;8.98;2.75;;;;;;;;;;5089792;28;20541;-60
2021/10/31 08:09:19;;;;;;;9.15;3.33;;;;;;;;;;5089369;28;20390;-60
2021/10/31 08:11:45;;;;;;;6.20;3.00;;;;;;;;;;5074164;28;20134;-57
2021/10/31 08:14:11;;;;;;;5.88;2.65;;;;;;;;;;5093125;28;20112;-57
2021/10/31 08:16:37;;;;;;;8.00;2.80;;;;;;;;;;5084915;28;20545;-59
2021/10/31 08:19:07;;;;;;;9.13;3.03;;;;;;;;;;5092343;28;20059;-60
2021/10/31 08:21:33;;;;;;;7.57;2.53;;;;;;;;;;5072271;28;20118;-61
2021/10/31 08:23:59;;;;;;;11.00;3.45;;;;;;;;;;5092292;28;20046;-56
2021/10/31 08:26:26;;;;;;;5.97;2.63;;;;;;;;;;5092527;28;20047;-61
2021/10/31 08:28:52;;;;;;;8.20;2.55;;;;;;;;;;5096984;28;20055;-57
2021/10/31 08:31:31;;;;;;;8.57;2.40;;;;;;;;;;5095202;28;20023;-59
2021/10/31 08:33:59;;;;;;;4.28;2.50;;;;;;;;;;5096860;28;20034;-59
2021/10/31 08:36:26;;;;;;;9.25;2.65;;;;;;;;;;5093813;28;20362;-60
2021/10/31 08:38:52;;;;;;;7.78;3.03;;;;;;;;;;5075342;28;20143;-59
2021/10/31 08:41:22;;;;;;;6.90;3.10;;;;;;;;;;5095778;28;20472;-58
2021/10/31 08:43:48;;;;;;;10.13;2.95;;;;;;;;;;5096584;28;20457;-59
2021/10/31 08:46:17;;;;;;;6.43;2.65;;;;;;;;;;5095028;28;20126;-59
2021/10/31 08:48:44;;;;;;;6.60;2.75;;;;;;;;;;5094205;28;20068;-59
2021/10/31 08:51:10;;;;;;;11.27;2.60;;;;;;;;;;5094675;28;20039;-56
2021/10/31 08:53:36;;;;;;;10.05;3.20;;;;;;;;;;5091043;28;20469;-60
2021/10/31 08:56:04;;;;;;;8.63;3.38;;;;;;;;;;5075182;28;20036;-56
2021/10/31 08:58:30;;;;;;;6.97;2.83;;;;;;;;;;5090126;28;20427;-60
2021/10/31 09:00:55;;;;;;;11.77;2.50;;;;;;;;;;5074173;28;20088;-58
2021/10/31 09:03:21;;;;;;;6.65;3.35;;;;;;;;;;5092658;28;20047;-58
2021/10/31 09:05:47;;;;;;;6.93;3.00;;;;;;;;;;5093144;28;20046;-58
2021/10/31 09:08:13;;;;;;;8.00;3.38;;;;;;;;;;5093027;28;20051;-58
2021/10/31 09:10:39;;;;;;;9.63;2.85;;;;;;;;;;5071104;28;21005;-59
2021/10/31 09:13:06;;;;;;;7.03;2.85;;;;;;;;;;5091479;28;22343;-60
2021/10/31 09:15:32;;;;;;;8.02;3.08;;;;;;;;;;5070219;28;20610;-60
2021/10/31 09:18:02;;;;;;;12.35;3.42;;;;;;;;;;5092543;28;20035;-61
2021/10/31 09:20:29;;;;;;;12.98;3.13;;;;;;;;;;5091030;28;20203;-59
2021/10/31 09:22:56;;;;;;;14.77;4.15;;;;;;;;;;5092736;28;20050;-58
2021/10/31 09:25:22;;;;;;;9.43;3.92;;;;;;;;;;5090501;28;20044;-60
2021/10/31 09:27:48;;;;;;;9.63;3.47;;;;;;;;;;5094251;28;20127;-59
2021/10/31 09:30:14;;;;;;;6.78;3.55;;;;;;;;;;5094410;28;20103;-60
2021/10/31 09:32:45;;;;;;;9.20;4.35;;;;;;;;;;5092344;28;20409;-59
2021/10/31 09:35:11;;;;;;;8.88;3.70;;;;;;;;;;5054345;28;20040;-56
2021/10/31 09:37:37;;;;;;;6.45;3.65;;;;;;;;;;5091658;28;20096;-60
2021/10/31 09:40:04;;;;;;;7.03;3.17;;;;;;;;;;5092479;28;20048;-59
2021/10/31 09:42:33;;;;;;;7.22;3.42;;;;;;;;;;5089512;28;20032;-56
2021/10/31 09:45:00;;;;;;;8.70;3.50;;;;;;;;;;5090779;28;20036;-56
2021/10/31 09:47:26;;;;;;;8.30;2.95;;;;;;;;;;5090278;28;20052;-57
2021/10/31 09:49:52;;;;;;;6.05;3.10;;;;;;;;;;5091354;28;20070;-56
2021/10/31 09:52:19;;;;;;;6.85;3.50;;;;;;;;;;5090239;28;20044;-58
2021/10/31 09:54:46;;;;;;;8.95;4.03;;;;;;;;;;5092412;28;20039;-59
2021/10/31 09:57:12;;;;;;;6.95;3.05;;;;;;;;;;5092826;28;20050;-57
2021/10/31 09:59:41;;;;;;;17.27;3.90;;;;;;;;;;5092639;28;20039;-57
2021/10/31 10:04:35;;;;;;;6.32;2.90;;;;;;;;;;5089313;28;20044;-57
2021/10/31 10:07:05;;;;;;;7.35;3.63;;;;;;;;;;5084295;28;20088;-59
2021/10/31 10:09:31;;;;;;;10.57;3.58;;;;;;;;;;5090828;28;20050;-60
2021/10/31 10:11:58;;;;;;;9.05;3.83;;;;;;;;;;5076877;28;20512;-59
2021/10/31 10:14:28;;;;;;;12.32;3.60;;;;;;;;;;5094016;28;20036;-58
2021/10/31 10:17:01;;;;;;;11.40;3.85;;;;;;;;;;5092449;28;20077;-58
2021/10/31 10:19:30;;;;;;;7.30;3.30;;;;;;;;;;5094290;28;20048;-58
2021/10/31 10:22:06;;;;;;;9.07;3.10;;;;;;;;;;5094606;28;20043;-58
2021/10/31 10:24:34;;;;;;;8.05;3.20;;;;;;;;;;5093181;28;20981;-60
2021/10/31 10:27:02;;;;;;;13.70;3.88;;;;;;;;;;5087915;28;20056;-60
2021/10/31 10:29:29;;;;;;;7.15;2.95;;;;;;;;;;5094048;28;20072;-57
2021/10/31 10:32:06;;;;;;;14.63;4.18;;;;;;;;;;5094613;28;20039;-59
2021/10/31 10:34:50;;;;;;;10.48;3.38;;;;;;;;;;5092751;28;20099;-58
2021/10/31 10:37:18;;;;;;;26.00;4.38;;;;;;;;;;5093462;28;20035;-59
2021/10/31 10:39:45;;;;;;;8.13;3.40;;;;;;;;;;5082629;28;20088;-58
2021/10/31 10:42:18;;;;;;;11.52;4.05;;;;;;;;;;5085587;28;20039;-56
2021/10/31 10:44:44;;;;;;;8.27;3.33;;;;;;;;;;5091240;28;20049;-60
2021/10/31 10:47:19;;;;;;;7.07;3.35;;;;;;;;;;5094429;28;20048;-59
2021/10/31 10:49:45;;;;;;;6.97;2.55;;;;;;;;;;5095742;28;20378;-59
2021/10/31 10:52:19;;;;;;;6.53;3.17;;;;;;;;;;5092516;28;20070;-59
2021/10/31 10:54:46;;;;;;;5.55;2.88;;;;;;;;;;5092300;28;20116;-59
2021/10/31 10:57:12;;;;;;;9.70;3.50;;;;;;;;;;5092012;28;20102;-59
2021/10/31 10:59:38;;;;;;;6.93;3.30;;;;;;;;;;5091866;28;21056;-59
2021/10/31 11:02:14;;;;;;;6.20;2.70;;;;;;;;;;5093033;28;20046;-60
2021/10/31 11:04:41;;;;;;;11.05;3.78;;;;;;;;;;5094477;28;20894;-60
2021/10/31 11:07:08;;;;;;;11.07;3.55;;;;;;;;;;5092075;28;20205;-59
2021/10/31 11:09:44;;;;;;;8.57;3.20;;;;;;;;;;5093670;28;20118;-59
2021/10/31 11:12:22;;;;;;;9.40;3.55;;;;;;;;;;5093143;28;20039;-59
2021/10/31 11:14:49;;;;;;;8.00;3.58;;;;;;;;;;5092536;28;20559;-59
2021/10/31 11:17:17;;;;;;;15.25;3.78;;;;;;;;;;5094590;28;20159;-59
2021/10/31 11:19:43;;;;;;;8.73;3.08;;;;;;;;;;5093911;28;20482;-57
2021/10/31 11:22:09;;;;;;;10.43;4.03;;;;;;;;;;5091343;28;20044;-59
2021/10/31 11:24:35;;;;;;;10.02;3.42;;;;;;;;;;5092150;28;20085;-60
2021/10/31 11:27:02;;;;;;;8.27;3.80;;;;;;;;;;5091471;28;20088;-58
2021/10/31 11:29:31;;;;;;;9.05;3.53;;;;;;;;;;5092640;28;20115;-59
2021/10/31 11:31:57;;;;;;;7.13;3.60;;;;;;;;;;5092407;28;20032;-58
2021/10/31 11:34:24;;;;;;;12.07;3.55;;;;;;;;;;5093857;28;20744;-56
2021/10/31 11:36:51;;;;;;;8.77;3.90;;;;;;;;;;5095246;28;20072;-57
2021/10/31 11:39:17;;;;;;;12.95;4.57;;;;;;;;;;5095746;28;20032;-58
2021/10/31 11:41:43;;;;;;;6.78;3.08;;;;;;;;;;5096748;28;20425;-59
2021/10/31 11:44:09;;;;;;;9.05;3.95;;;;;;;;;;5088898;28;20395;-60
2021/10/31 11:46:38;;;;;;;10.23;3.45;;;;;;;;;;5075739;28;20511;-58
2021/10/31 11:49:04;;;;;;;8.40;3.55;;;;;;;;;;5096590;28;20062;-60
2021/10/31 11:51:49;;;;;;;7.68;3.65;;;;;;;;;;5091243;28;20039;-59
2021/10/31 11:54:17;;;;;;;8.13;3.15;;;;;;;;;;5092853;28;20113;-58
2021/10/31 11:56:50;;;;;;;9.15;3.10;;;;;;;;;;5088380;28;20040;-60
2021/10/31 11:59:17;;;;;;;5.38;3.10;;;;;;;;;;5091774;28;21877;-59
2021/10/31 12:01:44;;;;;;;9.35;3.97;;;;;;;;;;5087381;28;20039;-55
2021/10/31 12:04:30;;;;;;;14.57;4.00;;;;;;;;;;5089593;28;20516;-59
2021/10/31 12:06:56;;;;;;;9.82;4.10;;;;;;;;;;5074889;28;20027;-60
2021/10/31 12:09:23;;;;;;;8.30;3.90;;;;;;;;;;5095595;28;20058;-56
2021/10/31 12:11:51;;;;;;;13.98;4.65;;;;;;;;;;5094494;28;20040;-59
2021/10/31 12:14:37;;;;;;;6.95;3.35;;;;;;;;;;5094748;28;20040;-59
2021/10/31 12:17:03;;;;;;;23.85;4.07;;;;;;;;;;5093988;28;20047;-57
2021/10/31 12:19:36;;;;;;;14.50;3.72;;;;;;;;;;5091689;28;20384;-60
2021/10/31 12:22:09;;;;;;;13.18;4.07;;;;;;;;;;5093264;28;20057;-58
2021/10/31 12:24:36;;;;;;;8.43;3.67;;;;;;;;;;5092872;28;20630;-58
2021/10/31 12:27:09;;;;;;;11.50;3.53;;;;;;;;;;5091276;28;20054;-59
2021/10/31 12:29:36;;;;;;;13.70;4.47;;;;;;;;;;5092992;28;20031;-59
2021/10/31 12:32:09;;;;;;;11.07;3.55;;;;;;;;;;5090732;28;20031;-59
2021/10/31 12:34:42;;;;;;;9.38;2.70;;;;;;;;;;5090312;28;20187;-60
2021/10/31 12:37:24;;;;;;;7.22;3.42;;;;;;;;;;5092381;28;20131;-60
2021/10/31 12:40:00;;;;;;;12.07;2.65;;;;;;;;;;5091460;28;20044;-60
2021/10/31 12:42:33;;;;;;;7.65;3.63;;;;;;;;;;5090417;28;20047;-58
2021/10/31 12:45:04;;;;;;;7.40;2.97;;;;;;;;;;5092767;28;20032;-57
2021/10/31 12:47:41;;;;;;;8.55;3.05;;;;;;;;;;5083553;28;20075;-58
2021/10/31 12:50:11;;;;;;;10.52;4.00;;;;;;;;;;5094645;28;20058;-59
2021/10/31 12:52:37;;;;;;;8.88;3.70;;;;;;;;;;5091311;28;20084;-61
2021/10/31 12:55:05;;;;;;;4.40;2.30;;;;;;;;;;5092074;28;20027;-57
2021/10/31 12:57:31;;;;;;;4.40;2.25;;;;;;;;;;5092419;28;20046;-58
2021/10/31 13:00:03;;;;;;;8.10;2.95;;;;;;;;;;5090126;28;20700;-57
2021/10/31 13:02:30;;;;;;;10.60;3.08;;;;;;;;;;5073890;28;20047;-57
2021/10/31 13:04:57;;;;;;;6.90;2.58;;;;;;;;;;5092463;28;20167;-59
2021/10/31 13:07:43;;;;;;;7.20;2.65;;;;;;;;;;5093250;28;20117;-56
2021/10/31 13:10:11;;;;;;;18.40;3.13;;;;;;;;;;5094478;28;20055;-59
2021/10/31 13:12:38;;;;;;;5.68;2.40;;;;;;;;;;5088670;28;20804;-60
2021/10/31 13:15:08;;;;;;;23.17;2.30;;;;;;;;;;5093584;28;20400;-55
2021/10/31 13:17:38;;;;;;;4.88;1.80;;;;;;;;;;5092879;28;20036;-58
2021/10/31 13:20:14;;;;;;;4.32;1.98;;;;;;;;;;5093514;28;20146;-59
2021/10/31 13:22:41;;;;;;;7.05;2.97;;;;;;;;;;5091224;28;20070;-55
2021/10/31 13:25:08;;;;;;;11.10;2.47;;;;;;;;;;5091832;28;20127;-58
2021/10/31 13:27:34;;;;;;;4.70;2.00;;;;;;;;;;5090640;28;20079;-56
2021/10/31 13:30:00;;;;;;;8.32;2.40;;;;;;;;;;5068867;28;20136;-58
2021/10/31 13:32:27;;;;;;;3.90;1.92;;;;;;;;;;5092133;28;20061;-58
2021/10/31 13:34:53;;;;;;;6.70;2.25;;;;;;;;;;5093326;28;20563;-59
2021/10/31 13:37:21;;;;;;;6.88;2.10;;;;;;;;;;5091733;28;20059;-60
2021/10/31 13:39:57;;;;;;;3.88;1.92;;;;;;;;;;5094232;28;20071;-60
2021/10/31 13:42:29;;;;;;;4.18;2.10;;;;;;;;;;5091851;28;20995;-57
2021/10/31 13:44:54;;;;;;;4.55;2.25;;;;;;;;;;5097140;28;20535;-59
2021/10/31 13:47:41;;;;;;;5.68;2.53;;;;;;;;;;5095330;28;20112;-56
2021/10/31 13:50:12;;;;;;;4.20;1.90;;;;;;;;;;5062248;28;20131;-59
2021/10/31 13:52:40;;;;;;;5.05;2.22;;;;;;;;;;5063143;28;20642;-59
2021/10/31 13:55:08;;;;;;;10.23;3.40;;;;;;;;;;5063844;28;20105;-59
2021/10/31 13:57:35;;;;;;;5.05;1.88;;;;;;;;;;5060891;28;20526;-60
2021/10/31 14:00:04;;;;;;;10.43;2.45;;;;;;;;;;5047214;28;20106;-60
2021/10/31 14:02:29;;;;;;;6.32;2.65;;;;;;;;;;5060855;28;20467;-59
2021/10/31 14:05:09;;;;;;;7.55;2.47;;;;;;;;;;5061946;28;20115;-60
2021/10/31 14:07:36;;;;;;;12.88;2.88;;;;;;;;;;5060743;28;20052;-59
2021/10/31 14:10:03;;;;;;;9.10;2.60;;;;;;;;;;5062018;28;20166;-55
2021/10/31 14:12:29;;;;;;;5.50;2.15;;;;;;;;;;5043837;28;20032;-56
2021/10/31 14:15:15;;;;;;;12.60;3.35;;;;;;;;;;5059936;28;20043;-58
2021/10/31 14:17:53;;;;;;;4.32;1.77;;;;;;;;;;5061944;28;20040;-60
2021/10/31 14:20:18;;;;;;;8.20;2.78;;;;;;;;;;5060136;28;20041;-57
2021/10/31 14:22:49;;;;;;;5.43;2.10;;;;;;;;;;5060278;28;20059;-59
2021/10/31 14:25:17;;;;;;;6.07;2.35;;;;;;;;;;5060942;28;20086;-57
2021/10/31 14:27:44;;;;;;;4.38;2.20;;;;;;;;;;5061953;28;20052;-57
2021/10/31 14:30:13;;;;;;;6.97;1.98;;;;;;;;;;5061350;28;20071;-59
2021/10/31 14:32:46;;;;;;;7.32;2.63;;;;;;;;;;5060853;28;20032;-59
2021/10/31 14:35:12;;;;;;;12.15;3.45;;;;;;;;;;5092921;28;20046;-58
2021/10/31 14:37:38;;;;;;;7.25;3.20;;;;;;;;;;5094644;28;20544;-59
2021/10/31 14:40:22;;;;;;;6.55;2.28;;;;;;;;;;5092754;28;20127;-59
2021/10/31 14:42:48;;;;;;;4.78;1.92;;;;;;;;;;5092307;28;20449;-58
2021/10/31 14:45:28;;;;;;;6.55;2.67;;;;;;;;;;5093696;28;20074;-58
2021/10/31 14:47:54;;;;;;;32.05;3.08;;;;;;;;;;5094068;28;20043;-60
2021/10/31 14:50:20;;;;;;;11.48;2.88;;;;;;;;;;5095801;28;20125;-60